Main page
METAR-TAF:

METAR-TAF

Airports :

Albacete, Spain

Albacete Airport

latitude: 38-57N, longitude: 001-51W, elevation: 702 m

Current weather observation

The report was made 19 minutes ago, at 07:00 UTC
Wind 2 kt from the Southeast
Temperature -1°C
Humidity 74%
Pressure 1018 hPa
Visibility 10 km or more
no clouds below 1500 m and no cumulonimbus

METAR: LEAB 220700Z 13002KT CAVOK M01/M05 Q1018 NOSIG

Time: 08:19 (07:19 UTC)

Forecast

The report was made 2 hours and 19 minutes ago, at 05:00 UTC
Forecast valid from 22 at 06 UTC to 22 at 15 UTC
Wind 5 kt from variable directions
Visibility 10 km or more
no clouds below 1500 m and no cumulonimbus

TAF: LEAB 220500Z 2206/2215 VRB05KT CAVOK

Weather observations and forecasts of more than 4000 airports (METAR and TAF reports).

The available stations are represented by yellow and red dots on the map.

Hover mouse over dot to see the name of the station.

Then click to see weather observations and forecasts.

To change the map : click on the green buttons with a black cross to zoom in, on the green button with a dash to zoom out, or on the green arrows for adjacent maps.


METAR-TAF: